createdAt,value
2019-04-23T00:01:36.746Z,97060.83
2019-04-23T00:04:01.096Z,97057.93
2019-04-23T00:06:47.753Z,97053.58
2019-04-23T00:09:07.281Z,97043.05
2019-04-23T00:14:02.892Z,97047.18
2019-04-23T00:16:30.147Z,97045.23
2019-04-23T00:18:56.165Z,97046.69
2019-04-23T00:21:40.513Z,97043.42
2019-04-23T00:24:52.215Z,97046.83
2019-04-23T00:27:10.759Z,97047.80
2019-04-23T00:29:28.067Z,97041.41
2019-04-23T00:31:59.556Z,97027.27
2019-04-23T00:34:37.447Z,97050.84
2019-04-23T00:37:01.581Z,97045.39
2019-04-23T00:39:36.111Z,97024.12
2019-04-23T00:41:57.523Z,97048.41
2019-04-23T00:44:38.452Z,97040.92
2019-04-23T00:47:06.730Z,97043.70
2019-04-23T00:49:32.560Z,97043.11
2019-04-23T00:51:58.480Z,97038.02
2019-04-23T00:54:32.273Z,97046.95
2019-04-23T00:57:00.766Z,97048.02
2019-04-23T00:59:27.005Z,97045.63
2019-04-23T01:02:01.044Z,97045.25
2019-04-23T01:04:27.500Z,97044.63
2019-04-23T01:06:58.313Z,97050.53
2019-04-23T01:09:29.364Z,97042.08
2019-04-23T01:12:03.500Z,97048.61
2019-04-23T01:14:26.256Z,97052.34
2019-04-23T01:17:06.096Z,97051.97
2019-04-23T01:20:05.751Z,97050.53
2019-04-23T01:22:08.510Z,97053.19
2019-04-23T01:25:10.806Z,97048.25
2019-04-23T01:28:02.414Z,97039.09
2019-04-23T01:30:32.850Z,97040.53
2019-04-23T01:33:05.788Z,97040.42
2019-04-23T01:35:26.960Z,97026.91
2019-04-23T01:37:58.200Z,97027.98
2019-04-23T01:42:58.575Z,97027.39
2019-04-23T01:45:26.968Z,97024.73
2019-04-23T01:48:00.007Z,97028.95
2019-04-23T01:50:39.818Z,97036.91
2019-04-23T01:53:06.928Z,97033.05
2019-04-23T01:55:33.075Z,97032.20
2019-04-23T01:58:23.880Z,97038.84
2019-04-23T02:00:34.076Z,97006.45
2019-04-23T02:03:06.019Z,97028.47
2019-04-23T02:05:34.911Z,97023.49
2019-04-23T02:08:06.499Z,97019.14
2019-04-23T02:10:45.786Z,97024.70
2019-04-23T02:13:12.644Z,97021.05
2019-04-23T02:15:36.332Z,97015.15
2019-04-23T02:18:11.757Z,97006.92
2019-04-23T02:20:43.092Z,97010.54
2019-04-23T02:23:31.208Z,97002.20
2019-04-23T02:26:04.031Z,97007.14
2019-04-23T02:28:33.000Z,96996.30
2019-04-23T02:31:23.484Z,96992.06
2019-04-23T02:33:49.981Z,96988.34
2019-04-23T02:35:58.670Z,96995.08
2019-04-23T02:38:42.904Z,96992.54
2019-04-23T02:41:12.731Z,96993.60
2019-04-23T02:43:20.177Z,96983.23
2019-04-23T02:50:57.780Z,96985.81
2019-04-23T02:53:53.483Z,96989.67
2019-04-23T02:56:24.170Z,96991.47
2019-04-23T02:58:34.474Z,96987.06
2019-04-23T03:01:15.221Z,96991.04
2019-04-23T03:03:38.304Z,96993.20
2019-04-23T03:11:18.356Z,96980.42
2019-04-23T03:19:11.217Z,96979.16
2019-04-23T03:21:58.725Z,96980.86
2019-04-23T03:27:17.179Z,96977.00
2019-04-23T03:39:40.296Z,96974.02
2019-04-23T03:42:06.030Z,96978.32
2019-04-23T03:44:39.979Z,96981.91
2019-04-23T03:47:01.719Z,96975.37
2019-04-23T03:49:32.782Z,96946.51
2019-04-23T03:52:12.042Z,96978.15
2019-04-23T03:54:37.728Z,96972.25
2019-04-23T03:57:13.523Z,96968.23
2019-04-23T03:59:37.239Z,96972.00
2019-04-23T04:12:01.686Z,96988.06
2019-04-23T04:19:32.424Z,96990.27
2019-04-23T04:22:00.239Z,96993.38
2019-04-23T04:29:45.003Z,96996.27
2019-04-23T04:34:58.446Z,97003.00
2019-04-23T04:37:32.062Z,97010.17
2019-04-23T04:39:33.550Z,97006.20
2019-04-23T04:42:14.846Z,97012.73
2019-04-23T04:44:41.141Z,97011.88
2019-04-23T04:47:27.900Z,97013.83
2019-04-23T04:49:51.352Z,97023.39
2019-04-23T04:52:22.907Z,97021.63
2019-04-23T04:54:47.109Z,97015.31
2019-04-23T04:57:13.116Z,97018.04
2019-04-23T04:59:35.621Z,97015.16
2019-04-23T05:07:30.496Z,97011.70
2019-04-23T05:09:43.865Z,97025.45
2019-04-23T05:12:01.107Z,97026.00
2019-04-23T05:14:33.531Z,97021.48
2019-04-23T05:17:04.033Z,97017.75
2019-04-23T05:29:32.482Z,97025.25
2019-04-23T05:32:02.518Z,97035.66
2019-04-23T05:34:27.302Z,97027.30
2019-04-23T05:37:01.901Z,97030.77
2019-04-23T05:41:58.404Z,97035.34
2019-04-23T05:44:29.645Z,97036.39
2019-04-23T05:46:59.649Z,97037.83
2019-04-23T05:49:27.920Z,97034.08
2019-04-23T05:51:58.944Z,97034.08
2019-04-23T05:54:26.601Z,97039.05
2019-04-23T05:56:58.410Z,97040.23
2019-04-23T05:59:26.168Z,97041.08
2019-04-23T06:04:32.462Z,97046.02
2019-04-23T06:07:08.768Z,97048.94
2019-04-23T06:09:25.237Z,97042.70
2019-04-23T06:11:58.671Z,97042.88
2019-04-23T06:14:30.786Z,97044.31
2019-04-23T06:19:36.575Z,97046.88
2019-04-23T06:24:29.425Z,97043.14
2019-04-23T06:29:26.784Z,97039.68
2019-04-23T06:34:26.547Z,97036.55
2019-04-23T06:36:52.639Z,97029.92
2019-04-23T06:39:16.160Z,97037.79
2019-04-23T06:41:49.923Z,97039.11
2019-04-23T06:44:25.587Z,97042.84
2019-04-23T06:49:28.420Z,97046.72
2019-04-23T06:52:04.352Z,97046.83
2019-04-23T06:54:25.594Z,97046.21
2019-04-23T06:57:05.464Z,97046.84
2019-04-23T07:02:01.154Z,97045.88
2019-04-23T07:06:58.301Z,97046.92
2019-04-23T07:09:29.293Z,97044.14
2019-04-23T07:11:46.288Z,97045.43
2019-04-23T07:14:17.058Z,97044.95
2019-04-23T07:16:46.509Z,97047.87
2019-04-23T07:21:51.299Z,97042.67
2019-04-23T07:24:27.714Z,97042.81
2019-04-23T07:26:52.824Z,97040.16
2019-04-23T07:29:15.695Z,97049.94
2019-04-23T07:31:48.375Z,97045.48
2019-04-23T07:34:13.837Z,97043.70
2019-04-23T07:36:41.140Z,97049.27
2019-04-23T07:39:29.710Z,97046.97
2019-04-23T07:48:01.436Z,97033.91
2019-04-23T07:53:03.551Z,97044.91
2019-04-23T07:55:26.927Z,97048.19
2019-04-23T07:57:59.879Z,97046.38
2019-04-23T08:00:31.010Z,97043.58
2019-04-23T08:02:58.324Z,97040.06
2019-04-23T08:05:24.090Z,97032.95
2019-04-23T08:07:54.106Z,97032.42
2019-04-23T08:10:24.656Z,97036.17
2019-04-23T08:12:56.256Z,97036.86
2019-04-23T08:15:23.019Z,97037.23
2019-04-23T08:17:45.076Z,97039.56
2019-04-23T08:20:21.272Z,97037.14
2019-04-23T08:22:48.031Z,97042.34
2019-04-23T08:25:52.696Z,97048.05
2019-04-23T08:28:25.461Z,97053.27
2019-04-23T08:30:45.385Z,97020.64
2019-04-23T08:33:17.445Z,97058.54
2019-04-23T08:35:50.966Z,97059.61
2019-04-23T08:38:25.882Z,97063.00
2019-04-23T08:40:57.225Z,97070.07
2019-04-23T08:43:44.482Z,97068.73
2019-04-23T08:46:13.460Z,97070.02
2019-04-23T08:48:41.656Z,97079.31
2019-04-23T08:51:23.771Z,97073.52
2019-04-23T08:56:12.397Z,97071.23
2019-04-23T08:58:43.527Z,97072.74
2019-04-23T09:03:37.061Z,97079.46
2019-04-23T09:08:37.666Z,97081.03
2019-04-23T09:11:27.673Z,97076.39
2019-04-23T09:16:08.425Z,97071.38
2019-04-23T09:18:37.171Z,97080.38
2019-04-23T09:21:12.693Z,97088.63
2019-04-23T09:23:44.457Z,97085.09
2019-04-23T09:26:02.301Z,97089.77
2019-04-23T09:28:53.293Z,97090.61
2019-04-23T09:31:30.378Z,97091.36
2019-04-23T09:34:11.447Z,97100.30
2019-04-23T09:39:49.940Z,97096.09
2019-04-23T09:45:34.169Z,97094.41
2019-04-23T09:48:06.726Z,97099.84
2019-04-23T09:58:19.736Z,97101.32
2019-04-23T10:00:40.714Z,97103.43
2019-04-23T10:03:02.418Z,97107.92
2019-04-23T10:05:28.862Z,97112.75
2019-04-23T10:07:54.395Z,97108.80
2019-04-23T10:10:14.515Z,97114.98
2019-04-23T10:12:42.205Z,97119.64
2019-04-23T10:15:18.583Z,97121.48
2019-04-23T10:17:40.313Z,97124.41
2019-04-23T10:20:08.699Z,97119.27
2019-04-23T10:22:38.014Z,97122.64
2019-04-23T10:25:06.767Z,97117.57
2019-04-23T10:27:35.084Z,97129.60
2019-04-23T10:30:04.115Z,97125.01
2019-04-23T10:32:33.455Z,97123.45
2019-04-23T10:35:10.284Z,97116.99
2019-04-23T10:37:42.903Z,97113.90
2019-04-23T10:40:05.721Z,97119.30
2019-04-23T10:42:35.609Z,97093.06
2019-04-23T10:45:40.861Z,97121.20
2019-04-23T10:51:25.909Z,97120.28
2019-04-23T10:54:08.312Z,97117.59
2019-04-23T10:56:36.206Z,97115.73
2019-04-23T10:58:54.513Z,97115.73
2019-04-23T11:01:32.098Z,97115.42
2019-04-23T11:04:10.675Z,97112.91
2019-04-23T11:06:38.841Z,97110.08
2019-04-23T11:09:03.759Z,97116.50
2019-04-23T11:11:35.649Z,97121.25
2019-04-23T11:14:13.213Z,97123.55
2019-04-23T11:19:07.367Z,97126.37
2019-04-23T11:21:35.783Z,97126.72
2019-04-23T11:24:17.205Z,97123.41
2019-04-23T11:26:38.803Z,97130.02
2019-04-23T11:29:01.981Z,97128.42
2019-04-23T11:36:53.864Z,97133.80
2019-04-23T11:39:18.476Z,97136.59
2019-04-23T11:41:47.084Z,97134.20
2019-04-23T11:44:10.028Z,97140.94
2019-04-23T11:49:26.388Z,97143.12
2019-04-23T11:54:01.794Z,97154.77
2019-04-23T11:56:53.715Z,97159.66
2019-04-23T11:59:10.985Z,97156.84
2019-04-23T12:04:40.703Z,97156.39
2019-04-23T12:12:16.857Z,97159.83
2019-04-23T12:14:46.349Z,97161.02
2019-04-23T12:17:37.869Z,97165.13
2019-04-23T12:22:22.263Z,97164.83
2019-04-23T12:27:25.321Z,97163.73
2019-04-23T12:29:52.289Z,97163.36
2019-04-23T12:50:41.836Z,97148.37
2019-04-23T12:52:51.049Z,97145.51
2019-04-23T12:55:23.129Z,97144.55
2019-04-23T12:57:57.464Z,97144.59
2019-04-23T13:00:22.486Z,97141.57
2019-04-23T13:03:02.791Z,97136.34
2019-04-23T13:05:23.904Z,97136.45
2019-04-23T13:10:22.269Z,97135.25
2019-04-23T13:13:04.232Z,97138.80
2019-04-23T13:20:23.673Z,97134.30
2019-04-23T13:22:54.858Z,97126.39
2019-04-23T13:35:53.319Z,97115.31
2019-04-23T13:40:47.101Z,97126.45
2019-04-23T13:43:19.546Z,97121.55
2019-04-23T13:46:00.004Z,97118.84
2019-04-23T13:48:13.410Z,97122.81
2019-04-23T13:50:53.445Z,97117.52
2019-04-23T13:53:32.018Z,97109.84
2019-04-23T13:55:42.691Z,97113.58
2019-04-23T13:58:32.872Z,97109.12
2019-04-23T14:00:52.574Z,97100.72
2019-04-23T14:03:26.026Z,97104.14
2019-04-23T14:06:16.516Z,97108.14
2019-04-23T14:08:51.904Z,97110.88
2019-04-23T14:16:11.617Z,97092.59
2019-04-23T14:18:53.909Z,97105.64
2019-04-23T14:21:15.064Z,97104.18
2019-04-23T14:24:00.253Z,97100.64
2019-04-23T14:26:20.737Z,97114.89
2019-04-23T14:31:09.310Z,97119.09
2019-04-23T14:34:03.594Z,97115.36
2019-04-23T14:36:10.565Z,97083.52
2019-04-23T14:38:41.564Z,97107.71
2019-04-23T14:41:19.495Z,97105.27
2019-04-23T14:43:40.270Z,97104.14
2019-04-23T14:49:04.191Z,97114.69
2019-04-23T14:51:39.821Z,97116.78
2019-04-23T14:53:48.202Z,97118.42
2019-04-23T14:58:57.450Z,97114.34
2019-04-23T15:01:35.567Z,97113.97
2019-04-23T15:03:50.614Z,97105.30
2019-04-23T15:06:41.144Z,97110.70
2019-04-23T15:11:48.855Z,97117.98
2019-04-23T15:19:11.023Z,97114.17
2019-04-23T15:27:29.613Z,97087.97
2019-04-23T15:28:36.698Z,97097.84
2019-04-23T15:31:26.812Z,97103.25
2019-04-23T15:34:00.677Z,97108.66
2019-04-23T15:36:49.735Z,97099.92
2019-04-23T15:43:57.419Z,97107.64
2019-04-23T15:46:29.596Z,97111.48
2019-04-23T15:49:01.304Z,97112.74
2019-04-23T15:51:28.551Z,97116.55
2019-04-23T15:53:56.988Z,97107.88
2019-04-23T15:56:35.526Z,97110.87
2019-04-23T15:59:04.331Z,97111.24
2019-04-23T16:01:29.291Z,97106.55
2019-04-23T16:03:24.330Z,97127.22
2019-04-23T16:05:52.989Z,97121.34
2019-04-23T16:08:59.696Z,97091.94
2019-04-23T16:11:43.846Z,97117.84
2019-04-23T16:16:45.305Z,97113.83
2019-04-23T16:26:58.007Z,97116.09
2019-04-23T16:31:49.581Z,97119.91
2019-04-23T16:34:28.666Z,97112.44
2019-04-23T16:36:59.540Z,97115.23
2019-04-23T16:39:25.692Z,97105.84
2019-04-23T16:42:02.191Z,97090.55
2019-04-23T16:44:38.792Z,97108.97
2019-04-23T16:47:02.611Z,97112.81
2019-04-23T16:49:38.720Z,97117.50
2019-04-23T16:52:01.444Z,97115.91
2019-04-23T16:54:53.248Z,97110.22
2019-04-23T16:59:24.721Z,97114.92
2019-04-23T17:02:01.608Z,97104.07
2019-04-23T17:04:34.541Z,97110.36
2019-04-23T17:06:57.807Z,97117.66
2019-04-23T17:09:28.362Z,97104.27
2019-04-23T17:12:03.051Z,97108.20
2019-04-23T17:16:49.342Z,97114.41
2019-04-23T17:19:22.718Z,97091.25
2019-04-23T17:29:26.690Z,97128.40
2019-04-23T17:31:53.764Z,97130.06
2019-04-23T17:34:30.683Z,97127.78
2019-04-23T17:40:12.378Z,97128.88
2019-04-23T17:42:48.366Z,97133.72
2019-04-23T17:56:06.296Z,97139.06
2019-04-23T17:58:25.354Z,97150.30
2019-04-23T18:01:02.513Z,97148.23
2019-04-23T18:03:25.719Z,97153.18
2019-04-23T18:06:04.059Z,97149.92
2019-04-23T18:08:20.409Z,97144.74
2019-04-23T18:10:56.440Z,97144.48
2019-04-23T18:13:20.782Z,97146.05
2019-04-23T18:15:55.934Z,97110.93
2019-04-23T18:18:30.696Z,97142.86
2019-04-23T18:21:29.519Z,97151.33
2019-04-23T18:24:00.260Z,97133.79
2019-04-23T18:26:36.499Z,97147.05
2019-04-23T18:29:18.896Z,97151.63
2019-04-23T18:32:07.871Z,97149.81
2019-04-23T18:34:43.623Z,97155.27
2019-04-23T18:37:08.891Z,97147.17
2019-04-23T18:39:29.270Z,97150.91
2019-04-23T18:42:12.990Z,97151.63
2019-04-23T18:44:39.762Z,97159.86
2019-04-23T18:47:02.462Z,97163.95
2019-04-23T18:49:37.909Z,97157.53
2019-04-23T18:51:57.751Z,97147.02
2019-04-23T18:54:28.324Z,97172.61
2019-04-23T18:59:39.302Z,97177.80
2019-04-23T19:02:35.225Z,97179.45
2019-04-23T19:05:08.591Z,97178.97
2019-04-23T19:10:30.601Z,97178.96
2019-04-23T19:13:07.214Z,97186.34
2019-04-23T19:15:38.213Z,97187.56
2019-04-23T19:18:04.172Z,97195.63
2019-04-23T19:23:16.300Z,97202.37
2019-04-23T19:28:23.595Z,97205.25
2019-04-23T19:33:29.532Z,97211.61
2019-04-23T19:36:09.768Z,97197.88
2019-04-23T19:40:56.786Z,97201.50
2019-04-23T19:43:19.394Z,97207.33
2019-04-23T19:45:55.596Z,97210.78
2019-04-23T19:56:00.531Z,97224.88
2019-04-23T19:58:26.222Z,97215.80
2019-04-23T20:01:09.443Z,97219.11
2019-04-23T20:03:26.643Z,97223.56
2019-04-23T20:05:54.176Z,97226.16
2019-04-23T20:08:25.433Z,97226.58
2019-04-23T20:11:04.518Z,97232.73
2019-04-23T20:13:24.460Z,97239.89
2019-04-23T20:16:01.433Z,97230.91
2019-04-23T20:18:05.155Z,97228.16
2019-04-23T20:20:49.241Z,97218.61
2019-04-23T20:23:24.855Z,97218.50
2019-04-23T20:26:12.222Z,97220.01
2019-04-23T20:34:24.405Z,97222.75
2019-04-23T20:36:46.222Z,97227.81
2019-04-23T20:39:16.375Z,97220.27
2019-04-23T20:42:02.388Z,97226.95
2019-04-23T20:44:35.924Z,97229.02
2019-04-23T20:47:00.262Z,97216.38
2019-04-23T20:49:28.742Z,97225.08
2019-04-23T20:52:00.649Z,97221.10
2019-04-23T20:54:35.529Z,97226.13
2019-04-23T20:57:12.492Z,97219.81
2019-04-23T20:59:50.264Z,97201.03
2019-04-23T21:02:28.333Z,97216.11
2019-04-23T21:05:01.484Z,97215.77
2019-04-23T21:07:28.265Z,97222.36
2019-04-23T21:10:00.951Z,97213.77
2019-04-23T21:12:35.678Z,97218.76
2019-04-23T21:17:15.384Z,97215.63
2019-04-23T21:22:17.201Z,97217.27
2019-04-23T21:24:45.893Z,97225.22
2019-04-23T21:27:32.747Z,97219.61
2019-04-23T21:30:01.915Z,97213.35
2019-04-23T21:32:24.913Z,97218.70
2019-04-23T21:35:01.668Z,97209.03
2019-04-23T21:37:37.693Z,97212.98
2019-04-23T21:40:31.355Z,97212.33
2019-04-23T21:43:09.918Z,97216.48
2019-04-23T21:45:42.433Z,97213.22
2019-04-23T21:48:10.286Z,97213.22
2019-04-23T21:50:47.375Z,97218.02
2019-04-23T21:52:59.525Z,97213.83
2019-04-23T21:55:38.958Z,97219.34
2019-04-23T21:58:08.895Z,97220.46
2019-04-23T22:00:48.456Z,97217.64
2019-04-23T22:03:09.860Z,97214.34
2019-04-23T22:05:44.508Z,97221.66
2019-04-23T22:08:10.658Z,97215.46
2019-04-23T22:10:45.594Z,97220.35
2019-04-23T22:15:44.664Z,97220.41
2019-04-23T22:18:07.046Z,97226.37
2019-04-23T22:20:43.657Z,97226.37
2019-04-23T22:23:11.089Z,97228.89
2019-04-23T22:25:53.381Z,97221.91
2019-04-23T22:30:37.069Z,97216.34
2019-04-23T22:35:43.157Z,97217.99
2019-04-23T22:38:15.826Z,97217.02
2019-04-23T22:40:34.863Z,97226.15
2019-04-23T22:45:37.640Z,97218.57
2019-04-23T22:48:04.768Z,97223.94
2019-04-23T22:50:38.500Z,97226.05
2019-04-23T22:53:08.139Z,97222.75
2019-04-23T22:55:32.794Z,97226.95
2019-04-23T22:58:05.102Z,97223.08
2019-04-23T23:00:49.829Z,97226.03
2019-04-23T23:03:29.345Z,97233.36
2019-04-23T23:10:56.966Z,97226.84
2019-04-23T23:13:33.108Z,97223.03
2019-04-23T23:18:23.252Z,97204.55
2019-04-23T23:23:21.511Z,97215.80
2019-04-23T23:25:58.891Z,97195.46
2019-04-23T23:28:31.077Z,97214.16
2019-04-23T23:31:04.039Z,97210.08
2019-04-23T23:33:26.933Z,97210.18
2019-04-23T23:36:03.608Z,97216.94
2019-04-23T23:41:03.686Z,97221.96
2019-04-23T23:46:04.772Z,97222.16
2019-04-23T23:48:19.775Z,97222.06
2019-04-23T23:50:58.861Z,97222.06
2019-04-23T23:53:33.905Z,97218.36
2019-04-23T23:55:57.986Z,97221.48
2019-04-23T23:58:23.556Z,97227.13
